sensor_id;sensor_type;location;lat;lon;timestamp;temperature;humidity
60039;DHT22;45916;52.734;6.544;2023-02-18T00:01:22;7.70;99.90
60039;DHT22;45916;52.734;6.544;2023-02-18T00:03:49;7.70;99.90
60039;DHT22;45916;52.734;6.544;2023-02-18T00:08:41;7.80;99.90
60039;DHT22;45916;52.734;6.544;2023-02-18T00:11:07;7.90;99.90
60039;DHT22;45916;52.734;6.544;2023-02-18T00:13:33;7.90;99.90
60039;DHT22;45916;52.734;6.544;2023-02-18T00:16:07;8.00;99.90
60039;DHT22;45916;52.734;6.544;2023-02-18T00:18:34;8.10;99.90
60039;DHT22;45916;52.734;6.544;2023-02-18T00:21:01;8.10;99.90
60039;DHT22;45916;52.734;6.544;2023-02-18T00:23:27;8.20;99.90
60039;DHT22;45916;52.734;6.544;2023-02-18T00:26:05;8.20;99.90
60039;DHT22;45916;52.734;6.544;2023-02-18T00:28:31;8.20;99.90
60039;DHT22;45916;52.734;6.544;2023-02-18T00:30:57;8.20;99.90
60039;DHT22;45916;52.734;6.544;2023-02-18T00:33:22;8.20;99.90
60039;DHT22;45916;52.734;6.544;2023-02-18T00:35:48;8.20;99.90
60039;DHT22;45916;52.734;6.544;2023-02-18T00:38:14;8.30;99.90
60039;DHT22;45916;52.734;6.544;2023-02-18T00:40:40;8.30;99.90
60039;DHT22;45916;52.734;6.544;2023-02-18T00:43:07;8.30;99.90
60039;DHT22;45916;52.734;6.544;2023-02-18T00:45:33;8.40;99.90
60039;DHT22;45916;52.734;6.544;2023-02-18T00:47:58;8.40;99.90
60039;DHT22;45916;52.734;6.544;2023-02-18T00:50:24;8.50;99.90
60039;DHT22;45916;52.734;6.544;2023-02-18T00:52:50;8.50;99.90
60039;DHT22;45916;52.734;6.544;2023-02-18T00:55:15;8.40;99.90
60039;DHT22;45916;52.734;6.544;2023-02-18T00:57:41;8.40;99.90
60039;DHT22;45916;52.734;6.544;2023-02-18T01:00:08;8.50;99.90
60039;DHT22;45916;52.734;6.544;2023-02-18T01:02:34;8.50;99.90
60039;DHT22;45916;52.734;6.544;2023-02-18T01:05:00;8.50;99.90
60039;DHT22;45916;52.734;6.544;2023-02-18T01:07:26;8.50;99.90
60039;DHT22;45916;52.734;6.544;2023-02-18T01:09:52;8.50;99.90
60039;DHT22;45916;52.734;6.544;2023-02-18T01:12:18;8.50;99.90
60039;DHT22;45916;52.734;6.544;2023-02-18T01:14:44;8.50;99.90
60039;DHT22;45916;52.734;6.544;2023-02-18T01:17:10;8.50;99.90
60039;DHT22;45916;52.734;6.544;2023-02-18T01:19:35;8.50;99.90
60039;DHT22;45916;52.734;6.544;2023-02-18T01:22:01;8.50;99.90
60039;DHT22;45916;52.734;6.544;2023-02-18T01:24:27;8.50;99.90
60039;DHT22;45916;52.734;6.544;2023-02-18T01:26:53;8.50;99.90
60039;DHT22;45916;52.734;6.544;2023-02-18T01:29:18;8.50;99.90
60039;DHT22;45916;52.734;6.544;2023-02-18T01:31:44;8.50;99.90
60039;DHT22;45916;52.734;6.544;2023-02-18T01:34:10;8.40;99.90
60039;DHT22;45916;52.734;6.544;2023-02-18T01:36:35;8.40;99.90
60039;DHT22;45916;52.734;6.544;2023-02-18T01:39:01;8.40;99.90
60039;DHT22;45916;52.734;6.544;2023-02-18T01:41:27;8.40;99.90
60039;DHT22;45916;52.734;6.544;2023-02-18T01:44:19;8.40;99.90
60039;DHT22;45916;52.734;6.544;2023-02-18T01:46:45;8.50;99.90
60039;DHT22;45916;52.734;6.544;2023-02-18T01:49:17;8.60;99.90
60039;DHT22;45916;52.734;6.544;2023-02-18T01:51:50;8.60;99.90
60039;DHT22;45916;52.734;6.544;2023-02-18T01:54:30;8.70;99.90
60039;DHT22;45916;52.734;6.544;2023-02-18T01:57:02;8.70;99.90
60039;DHT22;45916;52.734;6.544;2023-02-18T01:59:37;8.80;99.90
60039;DHT22;45916;52.734;6.544;2023-02-18T02:02:03;8.90;99.90
60039;DHT22;45916;52.734;6.544;2023-02-18T02:04:31;8.90;99.90
60039;DHT22;45916;52.734;6.544;2023-02-18T02:06:57;9.00;99.90
60039;DHT22;45916;52.734;6.544;2023-02-18T02:09:24;9.00;99.90
60039;DHT22;45916;52.734;6.544;2023-02-18T02:17:49;9.10;99.90
60039;DHT22;45916;52.734;6.544;2023-02-18T02:20:30;9.10;99.90
60039;DHT22;45916;52.734;6.544;2023-02-18T02:31:46;9.10;99.90
60039;DHT22;45916;52.734;6.544;2023-02-18T02:34:42;9.00;99.90
60039;DHT22;45916;52.734;6.544;2023-02-18T02:37:53;9.00;99.90
60039;DHT22;45916;52.734;6.544;2023-02-18T02:46:06;9.10;99.90
60039;DHT22;45916;52.734;6.544;2023-02-18T02:48:48;9.10;99.90
60039;DHT22;45916;52.734;6.544;2023-02-18T02:53:42;9.10;99.90
60039;DHT22;45916;52.734;6.544;2023-02-18T02:56:20;9.00;99.90
60039;DHT22;45916;52.734;6.544;2023-02-18T02:58:56;9.10;99.90
60039;DHT22;45916;52.734;6.544;2023-02-18T03:01:51;9.10;99.90
60039;DHT22;45916;52.734;6.544;2023-02-18T03:04:40;9.10;99.90
60039;DHT22;45916;52.734;6.544;2023-02-18T03:09:52;9.10;99.90
60039;DHT22;45916;52.734;6.544;2023-02-18T03:17:47;9.20;99.90
60039;DHT22;45916;52.734;6.544;2023-02-18T03:20:24;9.20;99.90
60039;DHT22;45916;52.734;6.544;2023-02-18T03:22:51;9.20;99.90
60039;DHT22;45916;52.734;6.544;2023-02-18T03:25:18;9.20;99.90
60039;DHT22;45916;52.734;6.544;2023-02-18T03:30:37;9.30;99.90
60039;DHT22;45916;52.734;6.544;2023-02-18T03:33:06;9.40;99.90
60039;DHT22;45916;52.734;6.544;2023-02-18T03:35:35;9.40;99.90
60039;DHT22;45916;52.734;6.544;2023-02-18T03:40:36;9.40;99.90
60039;DHT22;45916;52.734;6.544;2023-02-18T03:43:01;9.40;99.90
60039;DHT22;45916;52.734;6.544;2023-02-18T03:45:27;9.40;99.90
60039;DHT22;45916;52.734;6.544;2023-02-18T03:47:53;9.40;99.90
60039;DHT22;45916;52.734;6.544;2023-02-18T03:50:19;9.50;99.90
60039;DHT22;45916;52.734;6.544;2023-02-18T03:52:44;9.50;99.90
60039;DHT22;45916;52.734;6.544;2023-02-18T03:55:10;9.50;99.90
60039;DHT22;45916;52.734;6.544;2023-02-18T03:57:36;9.50;99.90
60039;DHT22;45916;52.734;6.544;2023-02-18T04:00:03;9.50;99.90
60039;DHT22;45916;52.734;6.544;2023-02-18T04:02:30;9.50;99.90
60039;DHT22;45916;52.734;6.544;2023-02-18T04:04:56;9.50;99.90
60039;DHT22;45916;52.734;6.544;2023-02-18T04:07:21;9.50;99.90
60039;DHT22;45916;52.734;6.544;2023-02-18T04:09:47;9.60;99.90
60039;DHT22;45916;52.734;6.544;2023-02-18T04:12:13;9.50;99.90
60039;DHT22;45916;52.734;6.544;2023-02-18T04:14:39;9.50;99.90
60039;DHT22;45916;52.734;6.544;2023-02-18T04:17:04;9.60;99.90
60039;DHT22;45916;52.734;6.544;2023-02-18T04:19:30;9.60;99.90
60039;DHT22;45916;52.734;6.544;2023-02-18T04:21:56;9.60;99.90
60039;DHT22;45916;52.734;6.544;2023-02-18T04:24:21;9.50;99.90
60039;DHT22;45916;52.734;6.544;2023-02-18T04:26:47;9.60;99.90
60039;DHT22;45916;52.734;6.544;2023-02-18T04:29:13;9.60;99.90
60039;DHT22;45916;52.734;6.544;2023-02-18T04:31:39;9.60;99.90
60039;DHT22;45916;52.734;6.544;2023-02-18T04:34:04;9.50;99.90
60039;DHT22;45916;52.734;6.544;2023-02-18T04:36:30;9.60;99.90
60039;DHT22;45916;52.734;6.544;2023-02-18T04:38:55;9.50;99.90
60039;DHT22;45916;52.734;6.544;2023-02-18T04:41:21;9.50;99.90
60039;DHT22;45916;52.734;6.544;2023-02-18T04:43:47;9.60;99.90
60039;DHT22;45916;52.734;6.544;2023-02-18T04:46:13;9.50;99.90
60039;DHT22;45916;52.734;6.544;2023-02-18T04:48:38;9.60;99.90
60039;DHT22;45916;52.734;6.544;2023-02-18T04:51:04;9.60;99.90
60039;DHT22;45916;52.734;6.544;2023-02-18T04:53:30;9.60;99.90
60039;DHT22;45916;52.734;6.544;2023-02-18T04:55:56;9.60;99.90
60039;DHT22;45916;52.734;6.544;2023-02-18T04:58:21;9.50;99.90
60039;DHT22;45916;52.734;6.544;2023-02-18T05:00:47;9.60;99.90
60039;DHT22;45916;52.734;6.544;2023-02-18T05:03:13;9.60;99.90
60039;DHT22;45916;52.734;6.544;2023-02-18T05:05:39;9.60;99.90
60039;DHT22;45916;52.734;6.544;2023-02-18T05:08:07;9.60;99.90
60039;DHT22;45916;52.734;6.544;2023-02-18T05:10:33;9.60;99.90
60039;DHT22;45916;52.734;6.544;2023-02-18T05:12:59;9.70;99.90
60039;DHT22;45916;52.734;6.544;2023-02-18T05:15:25;9.60;99.90
60039;DHT22;45916;52.734;6.544;2023-02-18T05:17:51;9.70;99.90
60039;DHT22;45916;52.734;6.544;2023-02-18T05:20:17;9.70;99.90
60039;DHT22;45916;52.734;6.544;2023-02-18T05:22:43;9.70;99.90
60039;DHT22;45916;52.734;6.544;2023-02-18T05:25:08;9.70;99.90
60039;DHT22;45916;52.734;6.544;2023-02-18T05:27:34;9.60;99.90
60039;DHT22;45916;52.734;6.544;2023-02-18T05:30:00;9.60;99.90
60039;DHT22;45916;52.734;6.544;2023-02-18T05:32:25;9.70;99.90
60039;DHT22;45916;52.734;6.544;2023-02-18T05:34:51;9.70;99.90
60039;DHT22;45916;52.734;6.544;2023-02-18T05:37:17;9.70;99.90
60039;DHT22;45916;52.734;6.544;2023-02-18T05:39:43;9.70;99.90
60039;DHT22;45916;52.734;6.544;2023-02-18T05:42:09;9.70;99.90
60039;DHT22;45916;52.734;6.544;2023-02-18T05:44:36;9.80;99.90
60039;DHT22;45916;52.734;6.544;2023-02-18T05:47:10;9.70;99.90
60039;DHT22;45916;52.734;6.544;2023-02-18T05:49:36;9.80;99.90
60039;DHT22;45916;52.734;6.544;2023-02-18T05:52:03;9.80;99.90
60039;DHT22;45916;52.734;6.544;2023-02-18T05:54:29;9.80;99.90
60039;DHT22;45916;52.734;6.544;2023-02-18T05:56:55;9.80;99.90
60039;DHT22;45916;52.734;6.544;2023-02-18T05:59:20;9.80;99.90
60039;DHT22;45916;52.734;6.544;2023-02-18T06:01:46;9.90;99.90
60039;DHT22;45916;52.734;6.544;2023-02-18T06:04:13;9.80;99.90
60039;DHT22;45916;52.734;6.544;2023-02-18T06:06:38;9.90;99.90
60039;DHT22;45916;52.734;6.544;2023-02-18T06:09:05;9.90;99.90
60039;DHT22;45916;52.734;6.544;2023-02-18T06:11:31;9.90;99.90
60039;DHT22;45916;52.734;6.544;2023-02-18T06:13:58;9.90;99.90
60039;DHT22;45916;52.734;6.544;2023-02-18T06:16:24;9.90;99.90
60039;DHT22;45916;52.734;6.544;2023-02-18T06:18:52;9.90;99.90
60039;DHT22;45916;52.734;6.544;2023-02-18T06:21:18;9.90;99.90
60039;DHT22;45916;52.734;6.544;2023-02-18T06:23:44;9.90;99.90
60039;DHT22;45916;52.734;6.544;2023-02-18T06:26:10;9.90;99.90
60039;DHT22;45916;52.734;6.544;2023-02-18T06:28:35;9.90;99.90
60039;DHT22;45916;52.734;6.544;2023-02-18T06:31:01;9.90;99.90
60039;DHT22;45916;52.734;6.544;2023-02-18T06:33:27;9.90;99.90
60039;DHT22;45916;52.734;6.544;2023-02-18T06:36:04;10.00;99.90
60039;DHT22;45916;52.734;6.544;2023-02-18T06:38:34;9.90;99.90
60039;DHT22;45916;52.734;6.544;2023-02-18T06:41:00;9.90;99.90
60039;DHT22;45916;52.734;6.544;2023-02-18T06:43:26;9.90;99.90
60039;DHT22;45916;52.734;6.544;2023-02-18T06:45:52;10.00;99.90
60039;DHT22;45916;52.734;6.544;2023-02-18T06:48:17;9.90;99.90
60039;DHT22;45916;52.734;6.544;2023-02-18T06:50:43;9.90;99.90
60039;DHT22;45916;52.734;6.544;2023-02-18T06:53:10;9.90;99.90
60039;DHT22;45916;52.734;6.544;2023-02-18T06:55:36;10.00;99.90
60039;DHT22;45916;52.734;6.544;2023-02-18T06:58:02;10.00;99.90
60039;DHT22;45916;52.734;6.544;2023-02-18T07:00:29;10.00;99.90
60039;DHT22;45916;52.734;6.544;2023-02-18T07:02:54;10.20;99.90
60039;DHT22;45916;52.734;6.544;2023-02-18T07:05:20;10.20;99.90
60039;DHT22;45916;52.734;6.544;2023-02-18T07:07:46;10.20;99.90
60039;DHT22;45916;52.734;6.544;2023-02-18T07:10:12;10.30;99.90
60039;DHT22;45916;52.734;6.544;2023-02-18T07:12:41;10.40;99.90
60039;DHT22;45916;52.734;6.544;2023-02-18T07:15:06;10.30;99.90
60039;DHT22;45916;52.734;6.544;2023-02-18T07:17:32;10.40;99.90
60039;DHT22;45916;52.734;6.544;2023-02-18T07:19:58;10.40;99.90
60039;DHT22;45916;52.734;6.544;2023-02-18T07:22:26;10.40;99.90
60039;DHT22;45916;52.734;6.544;2023-02-18T07:24:52;10.40;99.90
60039;DHT22;45916;52.734;6.544;2023-02-18T07:27:19;10.40;99.90
60039;DHT22;45916;52.734;6.544;2023-02-18T07:29:45;10.40;99.90
60039;DHT22;45916;52.734;6.544;2023-02-18T07:32:12;10.50;99.90
60039;DHT22;45916;52.734;6.544;2023-02-18T07:34:38;10.40;99.90
60039;DHT22;45916;52.734;6.544;2023-02-18T07:37:09;10.50;99.90
60039;DHT22;45916;52.734;6.544;2023-02-18T07:39:40;10.40;99.90
60039;DHT22;45916;52.734;6.544;2023-02-18T07:42:06;10.40;99.90
60039;DHT22;45916;52.734;6.544;2023-02-18T07:44:32;10.50;99.90
60039;DHT22;45916;52.734;6.544;2023-02-18T07:46:58;10.50;99.90
60039;DHT22;45916;52.734;6.544;2023-02-18T07:49:24;10.50;99.90
60039;DHT22;45916;52.734;6.544;2023-02-18T07:51:50;10.50;99.90
60039;DHT22;45916;52.734;6.544;2023-02-18T07:54:16;10.40;99.90
60039;DHT22;45916;52.734;6.544;2023-02-18T07:56:43;10.40;99.90
60039;DHT22;45916;52.734;6.544;2023-02-18T07:59:10;10.50;99.90
60039;DHT22;45916;52.734;6.544;2023-02-18T08:01:36;10.50;99.90
60039;DHT22;45916;52.734;6.544;2023-02-18T08:04:02;10.50;99.90
60039;DHT22;45916;52.734;6.544;2023-02-18T08:06:41;10.60;99.90
60039;DHT22;45916;52.734;6.544;2023-02-18T08:09:08;10.50;99.90
60039;DHT22;45916;52.734;6.544;2023-02-18T08:11:34;10.50;99.90
60039;DHT22;45916;52.734;6.544;2023-02-18T08:14:00;10.60;99.90
60039;DHT22;45916;52.734;6.544;2023-02-18T08:16:26;10.60;99.90
60039;DHT22;45916;52.734;6.544;2023-02-18T08:18:52;10.70;99.90
60039;DHT22;45916;52.734;6.544;2023-02-18T08:21:20;10.70;99.90
60039;DHT22;45916;52.734;6.544;2023-02-18T08:23:46;10.70;99.90
60039;DHT22;45916;52.734;6.544;2023-02-18T08:26:13;10.80;99.90
60039;DHT22;45916;52.734;6.544;2023-02-18T08:28:39;10.80;99.90
60039;DHT22;45916;52.734;6.544;2023-02-18T08:31:05;10.80;99.90
60039;DHT22;45916;52.734;6.544;2023-02-18T08:33:31;10.80;99.90
60039;DHT22;45916;52.734;6.544;2023-02-18T08:35:57;10.80;99.90
60039;DHT22;45916;52.734;6.544;2023-02-18T08:38:23;10.90;99.90
60039;DHT22;45916;52.734;6.544;2023-02-18T08:40:49;10.80;99.90
60039;DHT22;45916;52.734;6.544;2023-02-18T08:43:16;10.90;99.90
60039;DHT22;45916;52.734;6.544;2023-02-18T08:45:43;10.90;99.90
60039;DHT22;45916;52.734;6.544;2023-02-18T08:48:13;11.00;99.90
60039;DHT22;45916;52.734;6.544;2023-02-18T08:50:39;10.90;99.90
60039;DHT22;45916;52.734;6.544;2023-02-18T08:53:05;10.80;99.90
60039;DHT22;45916;52.734;6.544;2023-02-18T08:55:32;10.80;99.90
60039;DHT22;45916;52.734;6.544;2023-02-18T08:57:58;10.80;99.90
60039;DHT22;45916;52.734;6.544;2023-02-18T09:00:25;10.80;99.90
60039;DHT22;45916;52.734;6.544;2023-02-18T09:02:51;10.90;99.90
60039;DHT22;45916;52.734;6.544;2023-02-18T09:05:16;10.80;99.90
60039;DHT22;45916;52.734;6.544;2023-02-18T09:07:42;10.80;99.90
60039;DHT22;45916;52.734;6.544;2023-02-18T09:10:09;10.70;99.90
60039;DHT22;45916;52.734;6.544;2023-02-18T09:12:35;10.70;99.90
60039;DHT22;45916;52.734;6.544;2023-02-18T09:15:01;10.60;99.90
60039;DHT22;45916;52.734;6.544;2023-02-18T09:17:27;10.50;99.90
60039;DHT22;45916;52.734;6.544;2023-02-18T09:19:53;10.50;99.90
60039;DHT22;45916;52.734;6.544;2023-02-18T09:22:19;10.50;99.90
60039;DHT22;45916;52.734;6.544;2023-02-18T09:24:45;10.40;99.90
60039;DHT22;45916;52.734;6.544;2023-02-18T09:27:11;10.30;99.90
60039;DHT22;45916;52.734;6.544;2023-02-18T09:29:38;10.30;99.90
60039;DHT22;45916;52.734;6.544;2023-02-18T09:32:05;10.30;99.90
60039;DHT22;45916;52.734;6.544;2023-02-18T09:34:31;10.10;99.90
60039;DHT22;45916;52.734;6.544;2023-02-18T09:36:57;10.20;99.90
60039;DHT22;45916;52.734;6.544;2023-02-18T09:39:23;10.20;99.90
60039;DHT22;45916;52.734;6.544;2023-02-18T09:41:57;10.20;99.90
60039;DHT22;45916;52.734;6.544;2023-02-18T09:44:31;10.20;99.90
60039;DHT22;45916;52.734;6.544;2023-02-18T09:47:12;10.20;99.90
60039;DHT22;45916;52.734;6.544;2023-02-18T09:49:40;10.20;99.90
60039;DHT22;45916;52.734;6.544;2023-02-18T09:52:21;10.20;99.90
60039;DHT22;45916;52.734;6.544;2023-02-18T09:54:49;10.30;99.90
60039;DHT22;45916;52.734;6.544;2023-02-18T10:00:05;10.20;99.90
60039;DHT22;45916;52.734;6.544;2023-02-18T10:02:31;10.20;99.90
60039;DHT22;45916;52.734;6.544;2023-02-18T10:04:58;10.20;99.90
60039;DHT22;45916;52.734;6.544;2023-02-18T10:07:27;10.20;99.90
60039;DHT22;45916;52.734;6.544;2023-02-18T10:09:56;10.20;99.90
60039;DHT22;45916;52.734;6.544;2023-02-18T10:12:25;10.10;99.90
60039;DHT22;45916;52.734;6.544;2023-02-18T10:14:53;10.10;99.90
60039;DHT22;45916;52.734;6.544;2023-02-18T10:17:20;10.00;99.90
60039;DHT22;45916;52.734;6.544;2023-02-18T10:19:48;10.10;99.90
60039;DHT22;45916;52.734;6.544;2023-02-18T10:22:15;10.20;99.90
60039;DHT22;45916;52.734;6.544;2023-02-18T10:24:53;10.30;99.90
60039;DHT22;45916;52.734;6.544;2023-02-18T10:30:04;10.60;99.90
60039;DHT22;45916;52.734;6.544;2023-02-18T10:32:44;10.70;99.90
60039;DHT22;45916;52.734;6.544;2023-02-18T10:35:18;10.80;99.90
60039;DHT22;45916;52.734;6.544;2023-02-18T10:41:48;11.30;99.90
60039;DHT22;45916;52.734;6.544;2023-02-18T10:46:52;11.60;99.90
60039;DHT22;45916;52.734;6.544;2023-02-18T10:51:53;11.50;99.90
60039;DHT22;45916;52.734;6.544;2023-02-18T10:54:26;11.40;99.90
60039;DHT22;45916;52.734;6.544;2023-02-18T10:56:58;11.30;99.90
60039;DHT22;45916;52.734;6.544;2023-02-18T10:59:33;11.20;99.90
60039;DHT22;45916;52.734;6.544;2023-02-18T11:02:02;11.10;99.90
60039;DHT22;45916;52.734;6.544;2023-02-18T11:04:40;11.10;99.90
60039;DHT22;45916;52.734;6.544;2023-02-18T11:07:12;11.10;99.90
60039;DHT22;45916;52.734;6.544;2023-02-18T11:09:45;11.10;99.90
60039;DHT22;45916;52.734;6.544;2023-02-18T11:15:16;11.50;99.90
60039;DHT22;45916;52.734;6.544;2023-02-18T11:17:44;11.70;99.90
60039;DHT22;45916;52.734;6.544;2023-02-18T11:20:28;11.80;99.90
60039;DHT22;45916;52.734;6.544;2023-02-18T11:25:37;11.60;99.90
60039;DHT22;45916;52.734;6.544;2023-02-18T11:30:43;11.50;99.90
60039;DHT22;45916;52.734;6.544;2023-02-18T11:36:04;11.40;99.90
60039;DHT22;45916;52.734;6.544;2023-02-18T11:38:43;11.50;99.90
60039;DHT22;45916;52.734;6.544;2023-02-18T11:41:15;11.50;99.90
60039;DHT22;45916;52.734;6.544;2023-02-18T11:43:44;11.40;99.90
60039;DHT22;45916;52.734;6.544;2023-02-18T11:46:17;11.50;99.90
60039;DHT22;45916;52.734;6.544;2023-02-18T11:48:43;11.40;99.90
60039;DHT22;45916;52.734;6.544;2023-02-18T11:51:26;11.40;99.90
60039;DHT22;45916;52.734;6.544;2023-02-18T11:54:02;11.50;99.90
60039;DHT22;45916;52.734;6.544;2023-02-18T11:56:31;11.40;99.90
60039;DHT22;45916;52.734;6.544;2023-02-18T11:58:58;11.50;99.90
60039;DHT22;45916;52.734;6.544;2023-02-18T12:01:35;11.70;99.90
60039;DHT22;45916;52.734;6.544;2023-02-18T12:07:25;11.90;99.90
60039;DHT22;45916;52.734;6.544;2023-02-18T12:09:59;12.00;99.90
60039;DHT22;45916;52.734;6.544;2023-02-18T12:12:31;12.20;99.90
60039;DHT22;45916;52.734;6.544;2023-02-18T12:14:59;12.30;99.90
60039;DHT22;45916;52.734;6.544;2023-02-18T12:17:54;12.30;99.90
60039;DHT22;45916;52.734;6.544;2023-02-18T12:43:01;12.10;99.90
60039;DHT22;45916;52.734;6.544;2023-02-18T12:45:55;12.10;99.90
60039;DHT22;45916;52.734;6.544;2023-02-18T12:53:43;12.00;99.90
60039;DHT22;45916;52.734;6.544;2023-02-18T13:04:46;11.90;99.90
60039;DHT22;45916;52.734;6.544;2023-02-18T13:07:26;11.90;99.90
60039;DHT22;45916;52.734;6.544;2023-02-18T13:15:48;12.20;99.90
60039;DHT22;45916;52.734;6.544;2023-02-18T13:18:43;12.30;99.90
60039;DHT22;45916;52.734;6.544;2023-02-18T13:21:12;12.30;99.90
60039;DHT22;45916;52.734;6.544;2023-02-18T13:23:52;12.30;99.90
60039;DHT22;45916;52.734;6.544;2023-02-18T13:26:20;12.30;99.90
60039;DHT22;45916;52.734;6.544;2023-02-18T13:32:02;12.30;99.90
60039;DHT22;45916;52.734;6.544;2023-02-18T13:37:37;12.20;99.90
60039;DHT22;45916;52.734;6.544;2023-02-18T13:40:22;12.20;99.90
60039;DHT22;45916;52.734;6.544;2023-02-18T13:42:53;12.20;99.90
60039;DHT22;45916;52.734;6.544;2023-02-18T13:45:33;12.20;99.90
60039;DHT22;45916;52.734;6.544;2023-02-18T13:47:59;12.20;99.90
60039;DHT22;45916;52.734;6.544;2023-02-18T13:50:29;12.20;99.90
60039;DHT22;45916;52.734;6.544;2023-02-18T14:04:47;12.00;99.90
60039;DHT22;45916;52.734;6.544;2023-02-18T14:07:26;12.00;99.90
60039;DHT22;45916;52.734;6.544;2023-02-18T14:09:56;11.90;99.90
60039;DHT22;45916;52.734;6.544;2023-02-18T14:12:27;11.90;99.90
60039;DHT22;45916;52.734;6.544;2023-02-18T14:15:00;11.90;99.90
60039;DHT22;45916;52.734;6.544;2023-02-18T14:17:34;11.90;99.90
60039;DHT22;45916;52.734;6.544;2023-02-18T14:25:23;11.90;99.90
60039;DHT22;45916;52.734;6.544;2023-02-18T14:27:52;11.90;99.90
60039;DHT22;45916;52.734;6.544;2023-02-18T14:32:49;11.80;99.90
60039;DHT22;45916;52.734;6.544;2023-02-18T14:38:15;11.80;99.90
60039;DHT22;45916;52.734;6.544;2023-02-18T14:51:34;11.70;99.90
60039;DHT22;45916;52.734;6.544;2023-02-18T14:54:05;11.60;99.90
60039;DHT22;45916;52.734;6.544;2023-02-18T14:56:35;11.60;99.90
60039;DHT22;45916;52.734;6.544;2023-02-18T14:59:03;11.50;99.90
60039;DHT22;45916;52.734;6.544;2023-02-18T15:01:32;11.40;99.90
60039;DHT22;45916;52.734;6.544;2023-02-18T15:03:59;11.40;99.90
60039;DHT22;45916;52.734;6.544;2023-02-18T15:06:32;11.40;99.90
60039;DHT22;45916;52.734;6.544;2023-02-18T15:09:00;11.30;99.90
60039;DHT22;45916;52.734;6.544;2023-02-18T15:11:41;11.40;99.90
60039;DHT22;45916;52.734;6.544;2023-02-18T15:14:18;11.30;99.90
60039;DHT22;45916;52.734;6.544;2023-02-18T15:16:45;11.30;99.90
60039;DHT22;45916;52.734;6.544;2023-02-18T15:19:20;11.30;99.90
60039;DHT22;45916;52.734;6.544;2023-02-18T15:21:49;11.30;99.90
60039;DHT22;45916;52.734;6.544;2023-02-18T15:24:34;11.20;99.90
60039;DHT22;45916;52.734;6.544;2023-02-18T15:27:03;11.30;99.90
60039;DHT22;45916;52.734;6.544;2023-02-18T15:29:34;11.20;99.90
60039;DHT22;45916;52.734;6.544;2023-02-18T15:32:39;11.20;99.90
60039;DHT22;45916;52.734;6.544;2023-02-18T15:35:00;11.10;99.90
60039;DHT22;45916;52.734;6.544;2023-02-18T15:37:26;11.10;99.90
60039;DHT22;45916;52.734;6.544;2023-02-18T15:39:53;11.10;99.90
60039;DHT22;45916;52.734;6.544;2023-02-18T15:42:29;11.10;99.90
60039;DHT22;45916;52.734;6.544;2023-02-18T15:45:21;11.10;99.90
60039;DHT22;45916;52.734;6.544;2023-02-18T15:47:53;11.10;99.90
60039;DHT22;45916;52.734;6.544;2023-02-18T15:50:44;11.10;99.90
60039;DHT22;45916;52.734;6.544;2023-02-18T15:53:15;11.00;99.90
60039;DHT22;45916;52.734;6.544;2023-02-18T15:55:45;11.00;99.90
60039;DHT22;45916;52.734;6.544;2023-02-18T16:01:03;11.00;99.90
60039;DHT22;45916;52.734;6.544;2023-02-18T16:03:34;11.00;99.90
60039;DHT22;45916;52.734;6.544;2023-02-18T16:06:11;10.90;99.90
60039;DHT22;45916;52.734;6.544;2023-02-18T16:08:37;11.00;99.90
60039;DHT22;45916;52.734;6.544;2023-02-18T16:11:08;10.90;99.90
60039;DHT22;45916;52.734;6.544;2023-02-18T16:13:36;10.90;99.90
60039;DHT22;45916;52.734;6.544;2023-02-18T16:16:29;10.80;99.90
60039;DHT22;45916;52.734;6.544;2023-02-18T16:18:56;10.80;99.90
60039;DHT22;45916;52.734;6.544;2023-02-18T16:21:29;10.80;99.90
60039;DHT22;45916;52.734;6.544;2023-02-18T16:23:57;10.80;99.90
60039;DHT22;45916;52.734;6.544;2023-02-18T16:29:02;10.70;99.90
60039;DHT22;45916;52.734;6.544;2023-02-18T16:31:29;10.60;99.90
60039;DHT22;45916;52.734;6.544;2023-02-18T16:33:55;10.60;99.90
60039;DHT22;45916;52.734;6.544;2023-02-18T16:36:22;10.60;99.90
60039;DHT22;45916;52.734;6.544;2023-02-18T16:38:48;10.60;99.90
60039;DHT22;45916;52.734;6.544;2023-02-18T16:41:14;10.60;99.90
60039;DHT22;45916;52.734;6.544;2023-02-18T16:43:40;10.50;99.90
60039;DHT22;45916;52.734;6.544;2023-02-18T16:46:09;10.50;99.90
60039;DHT22;45916;52.734;6.544;2023-02-18T16:48:42;10.50;99.90
60039;DHT22;45916;52.734;6.544;2023-02-18T16:53:46;10.50;99.90
60039;DHT22;45916;52.734;6.544;2023-02-18T16:56:14;10.40;99.90
60039;DHT22;45916;52.734;6.544;2023-02-18T16:58:40;10.30;99.90
60039;DHT22;45916;52.734;6.544;2023-02-18T17:01:07;10.40;99.90
60039;DHT22;45916;52.734;6.544;2023-02-18T17:03:33;10.40;99.90
60039;DHT22;45916;52.734;6.544;2023-02-18T17:05:59;10.30;99.90
60039;DHT22;45916;52.734;6.544;2023-02-18T17:08:25;10.20;99.90
60039;DHT22;45916;52.734;6.544;2023-02-18T17:10:56;10.20;99.90
60039;DHT22;45916;52.734;6.544;2023-02-18T17:13:25;10.30;99.90
60039;DHT22;45916;52.734;6.544;2023-02-18T17:15:53;10.20;99.90
60039;DHT22;45916;52.734;6.544;2023-02-18T17:18:19;10.20;99.90
60039;DHT22;45916;52.734;6.544;2023-02-18T17:20:46;10.20;99.90
60039;DHT22;45916;52.734;6.544;2023-02-18T17:23:19;10.20;99.90
60039;DHT22;45916;52.734;6.544;2023-02-18T17:25:46;10.20;99.90
60039;DHT22;45916;52.734;6.544;2023-02-18T17:28:14;10.20;99.90
60039;DHT22;45916;52.734;6.544;2023-02-18T17:30:49;10.20;99.90
60039;DHT22;45916;52.734;6.544;2023-02-18T17:33:18;10.20;99.90
60039;DHT22;45916;52.734;6.544;2023-02-18T17:35:44;10.10;99.90
60039;DHT22;45916;52.734;6.544;2023-02-18T17:38:12;10.10;99.90
60039;DHT22;45916;52.734;6.544;2023-02-18T17:40:38;10.10;99.90
60039;DHT22;45916;52.734;6.544;2023-02-18T17:43:04;10.10;99.90
60039;DHT22;45916;52.734;6.544;2023-02-18T17:45:35;10.10;99.90
60039;DHT22;45916;52.734;6.544;2023-02-18T17:48:01;10.10;99.90
60039;DHT22;45916;52.734;6.544;2023-02-18T17:50:28;10.10;99.90
60039;DHT22;45916;52.734;6.544;2023-02-18T17:52:54;10.10;99.90
60039;DHT22;45916;52.734;6.544;2023-02-18T17:55:26;10.00;99.90
60039;DHT22;45916;52.734;6.544;2023-02-18T17:57:52;10.00;99.90
60039;DHT22;45916;52.734;6.544;2023-02-18T18:00:49;10.00;99.90
60039;DHT22;45916;52.734;6.544;2023-02-18T18:03:15;10.00;99.90
60039;DHT22;45916;52.734;6.544;2023-02-18T18:05:43;10.00;99.90
60039;DHT22;45916;52.734;6.544;2023-02-18T18:08:10;9.90;99.90
60039;DHT22;45916;52.734;6.544;2023-02-18T18:10:38;9.90;99.90
60039;DHT22;45916;52.734;6.544;2023-02-18T18:13:07;9.80;99.90
60039;DHT22;45916;52.734;6.544;2023-02-18T18:15:37;9.80;99.90
60039;DHT22;45916;52.734;6.544;2023-02-18T18:18:04;9.80;99.90
60039;DHT22;45916;52.734;6.544;2023-02-18T18:20:31;9.80;99.90
60039;DHT22;45916;52.734;6.544;2023-02-18T18:22:59;9.70;99.90
60039;DHT22;45916;52.734;6.544;2023-02-18T18:25:34;9.70;99.90
60039;DHT22;45916;52.734;6.544;2023-02-18T18:28:00;9.70;99.90